sensor_id;sensor_type;location;lat;lon;timestamp;P1;durP1;ratioP1;P2;durP2;ratioP2
51594;SDS011;37677;53.254;6.594;2023-05-02T00:02:00;14.75;;;5.55;;
51594;SDS011;37677;53.254;6.594;2023-05-02T00:04:26;21.02;;;5.90;;
51594;SDS011;37677;53.254;6.594;2023-05-02T00:06:52;20.48;;;6.07;;
51594;SDS011;37677;53.254;6.594;2023-05-02T00:09:18;13.90;;;5.75;;
51594;SDS011;37677;53.254;6.594;2023-05-02T00:11:44;20.52;;;6.35;;
51594;SDS011;37677;53.254;6.594;2023-05-02T00:14:10;15.20;;;5.93;;
51594;SDS011;37677;53.254;6.594;2023-05-02T00:16:36;15.75;;;6.03;;
51594;SDS011;37677;53.254;6.594;2023-05-02T00:19:01;18.17;;;6.13;;
51594;SDS011;37677;53.254;6.594;2023-05-02T00:21:27;15.10;;;5.15;;
51594;SDS011;37677;53.254;6.594;2023-05-02T00:23:53;14.65;;;4.93;;
51594;SDS011;37677;53.254;6.594;2023-05-02T00:26:21;15.77;;;5.32;;
51594;SDS011;37677;53.254;6.594;2023-05-02T00:28:47;14.88;;;5.30;;
51594;SDS011;37677;53.254;6.594;2023-05-02T00:31:13;19.48;;;6.28;;
51594;SDS011;37677;53.254;6.594;2023-05-02T00:33:39;16.08;;;5.70;;
51594;SDS011;37677;53.254;6.594;2023-05-02T00:36:15;10.10;;;5.40;;
51594;SDS011;37677;53.254;6.594;2023-05-02T00:38:42;12.65;;;5.63;;
51594;SDS011;37677;53.254;6.594;2023-05-02T00:41:08;12.07;;;5.22;;
51594;SDS011;37677;53.254;6.594;2023-05-02T00:43:33;12.40;;;5.40;;
51594;SDS011;37677;53.254;6.594;2023-05-02T00:46:00;11.48;;;5.50;;
51594;SDS011;37677;53.254;6.594;2023-05-02T00:48:27;12.55;;;5.75;;
51594;SDS011;37677;53.254;6.594;2023-05-02T00:50:53;14.25;;;6.15;;
51594;SDS011;37677;53.254;6.594;2023-05-02T00:53:19;11.80;;;5.43;;
51594;SDS011;37677;53.254;6.594;2023-05-02T00:55:48;14.05;;;5.70;;
51594;SDS011;37677;53.254;6.594;2023-05-02T00:58:14;13.82;;;6.10;;
51594;SDS011;37677;53.254;6.594;2023-05-02T01:06:09;13.77;;;6.03;;
51594;SDS011;37677;53.254;6.594;2023-05-02T01:14:43;13.98;;;6.15;;
51594;SDS011;37677;53.254;6.594;2023-05-02T01:17:13;19.98;;;6.47;;
51594;SDS011;37677;53.254;6.594;2023-05-02T01:19:42;16.77;;;6.38;;
51594;SDS011;37677;53.254;6.594;2023-05-02T01:22:13;19.88;;;6.68;;
51594;SDS011;37677;53.254;6.594;2023-05-02T01:27:29;22.30;;;6.13;;
51594;SDS011;37677;53.254;6.594;2023-05-02T01:30:10;14.73;;;6.70;;
51594;SDS011;37677;53.254;6.594;2023-05-02T01:32:38;28.58;;;6.57;;
51594;SDS011;37677;53.254;6.594;2023-05-02T01:35:05;28.02;;;6.35;;
51594;SDS011;37677;53.254;6.594;2023-05-02T01:37:33;28.92;;;6.75;;
51594;SDS011;37677;53.254;6.594;2023-05-02T01:40:02;24.08;;;6.57;;
51594;SDS011;37677;53.254;6.594;2023-05-02T01:42:30;31.23;;;6.15;;
51594;SDS011;37677;53.254;6.594;2023-05-02T01:44:58;19.27;;;6.72;;
51594;SDS011;37677;53.254;6.594;2023-05-02T01:47:27;22.42;;;6.35;;
51594;SDS011;37677;53.254;6.594;2023-05-02T01:49:56;29.67;;;7.35;;
51594;SDS011;37677;53.254;6.594;2023-05-02T01:52:24;24.67;;;6.78;;
51594;SDS011;37677;53.254;6.594;2023-05-02T01:54:51;33.67;;;7.13;;
51594;SDS011;37677;53.254;6.594;2023-05-02T01:57:19;30.67;;;6.95;;
51594;SDS011;37677;53.254;6.594;2023-05-02T01:59:45;24.60;;;6.00;;
51594;SDS011;37677;53.254;6.594;2023-05-02T02:02:14;21.92;;;6.15;;
51594;SDS011;37677;53.254;6.594;2023-05-02T02:04:40;20.83;;;5.32;;
51594;SDS011;37677;53.254;6.594;2023-05-02T02:07:08;25.83;;;6.63;;
51594;SDS011;37677;53.254;6.594;2023-05-02T02:09:36;31.95;;;6.53;;
51594;SDS011;37677;53.254;6.594;2023-05-02T02:12:48;26.60;;;6.13;;
51594;SDS011;37677;53.254;6.594;2023-05-02T02:15:48;31.65;;;6.93;;
51594;SDS011;37677;53.254;6.594;2023-05-02T02:20:28;31.67;;;7.75;;
51594;SDS011;37677;53.254;6.594;2023-05-02T02:22:56;34.88;;;7.10;;
51594;SDS011;37677;53.254;6.594;2023-05-02T02:25:24;32.65;;;7.30;;
51594;SDS011;37677;53.254;6.594;2023-05-02T02:27:51;31.75;;;7.38;;
51594;SDS011;37677;53.254;6.594;2023-05-02T02:30:17;32.00;;;7.32;;
51594;SDS011;37677;53.254;6.594;2023-05-02T02:32:43;31.00;;;7.78;;
51594;SDS011;37677;53.254;6.594;2023-05-02T02:35:09;31.00;;;8.18;;
51594;SDS011;37677;53.254;6.594;2023-05-02T02:37:40;28.45;;;7.80;;
51594;SDS011;37677;53.254;6.594;2023-05-02T02:40:28;20.23;;;5.75;;
51594;SDS011;37677;53.254;6.594;2023-05-02T02:48:54;24.17;;;6.57;;
51594;SDS011;37677;53.254;6.594;2023-05-02T02:51:45;23.52;;;6.45;;
51594;SDS011;37677;53.254;6.594;2023-05-02T02:54:28;33.17;;;6.93;;
51594;SDS011;37677;53.254;6.594;2023-05-02T02:59:50;22.35;;;5.80;;
51594;SDS011;37677;53.254;6.594;2023-05-02T03:02:19;23.48;;;6.05;;
51594;SDS011;37677;53.254;6.594;2023-05-02T03:04:51;24.23;;;5.78;;
51594;SDS011;37677;53.254;6.594;2023-05-02T03:07:18;21.50;;;5.93;;
51594;SDS011;37677;53.254;6.594;2023-05-02T03:09:47;20.90;;;4.47;;
51594;SDS011;37677;53.254;6.594;2023-05-02T03:12:13;26.95;;;5.22;;
51594;SDS011;37677;53.254;6.594;2023-05-02T03:14:39;17.67;;;4.60;;
51594;SDS011;37677;53.254;6.594;2023-05-02T03:17:06;17.70;;;4.28;;
51594;SDS011;37677;53.254;6.594;2023-05-02T03:19:34;23.50;;;4.75;;
51594;SDS011;37677;53.254;6.594;2023-05-02T03:22:01;13.52;;;4.22;;
51594;SDS011;37677;53.254;6.594;2023-05-02T03:24:27;17.33;;;4.22;;
51594;SDS011;37677;53.254;6.594;2023-05-02T03:26:56;18.42;;;4.28;;
51594;SDS011;37677;53.254;6.594;2023-05-02T03:29:26;22.98;;;4.72;;
51594;SDS011;37677;53.254;6.594;2023-05-02T03:31:52;22.13;;;5.15;;
51594;SDS011;37677;53.254;6.594;2023-05-02T03:34:18;19.10;;;4.47;;
51594;SDS011;37677;53.254;6.594;2023-05-02T03:36:46;15.18;;;3.88;;
51594;SDS011;37677;53.254;6.594;2023-05-02T03:39:11;17.50;;;4.03;;
51594;SDS011;37677;53.254;6.594;2023-05-02T03:41:37;17.98;;;3.95;;
51594;SDS011;37677;53.254;6.594;2023-05-02T03:44:03;15.90;;;3.90;;
51594;SDS011;37677;53.254;6.594;2023-05-02T03:46:28;24.45;;;3.97;;
51594;SDS011;37677;53.254;6.594;2023-05-02T03:48:58;22.08;;;4.57;;
51594;SDS011;37677;53.254;6.594;2023-05-02T03:51:24;12.65;;;3.33;;
51594;SDS011;37677;53.254;6.594;2023-05-02T03:53:49;11.73;;;3.55;;
51594;SDS011;37677;53.254;6.594;2023-05-02T03:56:18;17.20;;;4.15;;
51594;SDS011;37677;53.254;6.594;2023-05-02T03:58:44;11.60;;;3.47;;
51594;SDS011;37677;53.254;6.594;2023-05-02T04:01:13;14.38;;;4.00;;
51594;SDS011;37677;53.254;6.594;2023-05-02T04:03:40;11.90;;;3.00;;
51594;SDS011;37677;53.254;6.594;2023-05-02T04:06:06;14.63;;;3.67;;
51594;SDS011;37677;53.254;6.594;2023-05-02T04:08:32;11.57;;;3.17;;
51594;SDS011;37677;53.254;6.594;2023-05-02T04:10:58;13.57;;;3.30;;
51594;SDS011;37677;53.254;6.594;2023-05-02T04:13:24;13.43;;;2.95;;
51594;SDS011;37677;53.254;6.594;2023-05-02T04:15:49;12.23;;;3.05;;
51594;SDS011;37677;53.254;6.594;2023-05-02T04:18:15;10.93;;;2.90;;
51594;SDS011;37677;53.254;6.594;2023-05-02T04:20:44;13.77;;;3.20;;
51594;SDS011;37677;53.254;6.594;2023-05-02T04:23:09;11.55;;;3.00;;
51594;SDS011;37677;53.254;6.594;2023-05-02T04:25:35;12.20;;;3.60;;
51594;SDS011;37677;53.254;6.594;2023-05-02T04:28:01;8.40;;;2.85;;
51594;SDS011;37677;53.254;6.594;2023-05-02T04:30:27;10.45;;;3.05;;
51594;SDS011;37677;53.254;6.594;2023-05-02T04:32:53;9.80;;;2.97;;
51594;SDS011;37677;53.254;6.594;2023-05-02T04:35:19;10.25;;;2.47;;
51594;SDS011;37677;53.254;6.594;2023-05-02T04:37:44;13.43;;;3.03;;
51594;SDS011;37677;53.254;6.594;2023-05-02T04:40:11;10.05;;;3.08;;
51594;SDS011;37677;53.254;6.594;2023-05-02T04:42:37;12.05;;;3.33;;
51594;SDS011;37677;53.254;6.594;2023-05-02T04:45:02;12.57;;;3.03;;
51594;SDS011;37677;53.254;6.594;2023-05-02T04:47:29;11.98;;;4.38;;
51594;SDS011;37677;53.254;6.594;2023-05-02T04:49:55;15.63;;;3.70;;
51594;SDS011;37677;53.254;6.594;2023-05-02T04:52:20;10.82;;;3.45;;
51594;SDS011;37677;53.254;6.594;2023-05-02T04:54:46;20.45;;;4.88;;
51594;SDS011;37677;53.254;6.594;2023-05-02T04:57:12;20.50;;;3.75;;
51594;SDS011;37677;53.254;6.594;2023-05-02T04:59:38;19.70;;;3.97;;
51594;SDS011;37677;53.254;6.594;2023-05-02T05:02:04;16.50;;;4.40;;
51594;SDS011;37677;53.254;6.594;2023-05-02T05:04:29;10.68;;;3.80;;
51594;SDS011;37677;53.254;6.594;2023-05-02T05:06:55;19.73;;;4.20;;
51594;SDS011;37677;53.254;6.594;2023-05-02T05:09:21;17.40;;;4.72;;
51594;SDS011;37677;53.254;6.594;2023-05-02T05:11:46;16.52;;;4.55;;
51594;SDS011;37677;53.254;6.594;2023-05-02T05:14:12;18.70;;;4.60;;
51594;SDS011;37677;53.254;6.594;2023-05-02T05:16:38;22.52;;;5.07;;
51594;SDS011;37677;53.254;6.594;2023-05-02T05:19:04;18.05;;;4.57;;
51594;SDS011;37677;53.254;6.594;2023-05-02T05:21:29;14.82;;;4.45;;
51594;SDS011;37677;53.254;6.594;2023-05-02T05:23:55;18.45;;;4.90;;
51594;SDS011;37677;53.254;6.594;2023-05-02T05:26:21;13.95;;;4.35;;
51594;SDS011;37677;53.254;6.594;2023-05-02T05:28:49;13.27;;;4.25;;
51594;SDS011;37677;53.254;6.594;2023-05-02T05:31:14;21.73;;;4.55;;
51594;SDS011;37677;53.254;6.594;2023-05-02T05:33:41;19.33;;;4.40;;
51594;SDS011;37677;53.254;6.594;2023-05-02T05:36:07;20.40;;;4.53;;
51594;SDS011;37677;53.254;6.594;2023-05-02T05:38:34;13.55;;;3.88;;
51594;SDS011;37677;53.254;6.594;2023-05-02T05:41:01;10.63;;;4.13;;
51594;SDS011;37677;53.254;6.594;2023-05-02T05:43:27;14.10;;;3.40;;
51594;SDS011;37677;53.254;6.594;2023-05-02T05:45:54;10.55;;;4.10;;
51594;SDS011;37677;53.254;6.594;2023-05-02T05:48:20;20.58;;;4.28;;
51594;SDS011;37677;53.254;6.594;2023-05-02T05:50:46;13.15;;;4.57;;
51594;SDS011;37677;53.254;6.594;2023-05-02T05:53:12;18.27;;;3.60;;
51594;SDS011;37677;53.254;6.594;2023-05-02T05:55:39;10.98;;;3.80;;
51594;SDS011;37677;53.254;6.594;2023-05-02T05:58:05;12.88;;;3.80;;
51594;SDS011;37677;53.254;6.594;2023-05-02T06:00:34;14.73;;;4.55;;
51594;SDS011;37677;53.254;6.594;2023-05-02T06:03:00;15.25;;;3.60;;
51594;SDS011;37677;53.254;6.594;2023-05-02T06:05:26;13.57;;;4.10;;
51594;SDS011;37677;53.254;6.594;2023-05-02T06:07:52;15.73;;;4.50;;
51594;SDS011;37677;53.254;6.594;2023-05-02T06:10:18;19.15;;;4.05;;
51594;SDS011;37677;53.254;6.594;2023-05-02T06:12:44;15.68;;;4.07;;
51594;SDS011;37677;53.254;6.594;2023-05-02T06:15:09;13.82;;;3.88;;
51594;SDS011;37677;53.254;6.594;2023-05-02T06:17:35;14.00;;;4.05;;
51594;SDS011;37677;53.254;6.594;2023-05-02T06:20:01;11.13;;;3.83;;
51594;SDS011;37677;53.254;6.594;2023-05-02T06:22:26;13.75;;;4.30;;
51594;SDS011;37677;53.254;6.594;2023-05-02T06:24:52;12.05;;;3.70;;
51594;SDS011;37677;53.254;6.594;2023-05-02T06:27:18;18.35;;;4.43;;
51594;SDS011;37677;53.254;6.594;2023-05-02T06:29:43;17.15;;;4.35;;
51594;SDS011;37677;53.254;6.594;2023-05-02T06:32:09;13.60;;;4.15;;
51594;SDS011;37677;53.254;6.594;2023-05-02T06:34:35;15.90;;;3.58;;
51594;SDS011;37677;53.254;6.594;2023-05-02T06:37:01;11.55;;;4.07;;
51594;SDS011;37677;53.254;6.594;2023-05-02T06:39:26;15.98;;;4.15;;
51594;SDS011;37677;53.254;6.594;2023-05-02T06:41:55;13.50;;;3.97;;
51594;SDS011;37677;53.254;6.594;2023-05-02T06:44:22;15.07;;;4.28;;
51594;SDS011;37677;53.254;6.594;2023-05-02T06:46:48;17.80;;;4.68;;
51594;SDS011;37677;53.254;6.594;2023-05-02T06:49:15;12.88;;;3.63;;
51594;SDS011;37677;53.254;6.594;2023-05-02T06:51:40;16.65;;;4.03;;
51594;SDS011;37677;53.254;6.594;2023-05-02T06:54:06;16.35;;;4.45;;
51594;SDS011;37677;53.254;6.594;2023-05-02T06:56:32;15.38;;;3.83;;
51594;SDS011;37677;53.254;6.594;2023-05-02T06:58:58;12.98;;;3.83;;
51594;SDS011;37677;53.254;6.594;2023-05-02T07:01:24;15.75;;;4.00;;
51594;SDS011;37677;53.254;6.594;2023-05-02T07:03:50;12.32;;;3.63;;
51594;SDS011;37677;53.254;6.594;2023-05-02T07:06:17;16.65;;;3.97;;
51594;SDS011;37677;53.254;6.594;2023-05-02T07:08:42;13.90;;;3.80;;
51594;SDS011;37677;53.254;6.594;2023-05-02T07:11:08;13.40;;;3.20;;
51594;SDS011;37677;53.254;6.594;2023-05-02T07:13:34;13.45;;;4.03;;
51594;SDS011;37677;53.254;6.594;2023-05-02T07:15:59;15.30;;;4.22;;
51594;SDS011;37677;53.254;6.594;2023-05-02T07:18:25;14.18;;;3.85;;
51594;SDS011;37677;53.254;6.594;2023-05-02T07:20:51;9.73;;;3.72;;
51594;SDS011;37677;53.254;6.594;2023-05-02T07:23:16;11.85;;;3.97;;
51594;SDS011;37677;53.254;6.594;2023-05-02T07:25:42;13.20;;;4.00;;
51594;SDS011;37677;53.254;6.594;2023-05-02T07:28:08;17.88;;;4.00;;
51594;SDS011;37677;53.254;6.594;2023-05-02T07:30:34;20.25;;;3.83;;
51594;SDS011;37677;53.254;6.594;2023-05-02T07:33:00;15.05;;;3.40;;
51594;SDS011;37677;53.254;6.594;2023-05-02T07:35:25;11.55;;;3.22;;
51594;SDS011;37677;53.254;6.594;2023-05-02T07:37:51;11.57;;;3.60;;
51594;SDS011;37677;53.254;6.594;2023-05-02T07:40:17;12.65;;;3.17;;
51594;SDS011;37677;53.254;6.594;2023-05-02T07:42:43;12.23;;;3.25;;
51594;SDS011;37677;53.254;6.594;2023-05-02T07:45:09;10.20;;;3.45;;
51594;SDS011;37677;53.254;6.594;2023-05-02T07:47:35;12.60;;;3.15;;
51594;SDS011;37677;53.254;6.594;2023-05-02T07:50:01;11.27;;;3.15;;
51594;SDS011;37677;53.254;6.594;2023-05-02T07:52:30;9.30;;;3.22;;
51594;SDS011;37677;53.254;6.594;2023-05-02T07:54:56;11.32;;;3.15;;
51594;SDS011;37677;53.254;6.594;2023-05-02T07:57:22;7.63;;;2.28;;
51594;SDS011;37677;53.254;6.594;2023-05-02T07:59:48;6.72;;;2.17;;
51594;SDS011;37677;53.254;6.594;2023-05-02T08:02:14;11.93;;;2.80;;
51594;SDS011;37677;53.254;6.594;2023-05-02T08:04:43;6.45;;;2.20;;
51594;SDS011;37677;53.254;6.594;2023-05-02T08:07:09;7.18;;;2.50;;
51594;SDS011;37677;53.254;6.594;2023-05-02T08:09:35;6.72;;;2.20;;
51594;SDS011;37677;53.254;6.594;2023-05-02T08:12:01;10.10;;;2.47;;
51594;SDS011;37677;53.254;6.594;2023-05-02T08:14:27;9.38;;;2.55;;
51594;SDS011;37677;53.254;6.594;2023-05-02T08:16:53;7.30;;;2.10;;
51594;SDS011;37677;53.254;6.594;2023-05-02T08:19:19;6.82;;;2.38;;
51594;SDS011;37677;53.254;6.594;2023-05-02T08:21:44;9.48;;;2.50;;
51594;SDS011;37677;53.254;6.594;2023-05-02T08:24:10;10.00;;;2.15;;
51594;SDS011;37677;53.254;6.594;2023-05-02T08:26:35;5.93;;;2.20;;
51594;SDS011;37677;53.254;6.594;2023-05-02T08:29:01;5.13;;;1.80;;
51594;SDS011;37677;53.254;6.594;2023-05-02T08:31:28;7.97;;;2.22;;
51594;SDS011;37677;53.254;6.594;2023-05-02T08:33:54;6.35;;;2.05;;
51594;SDS011;37677;53.254;6.594;2023-05-02T08:36:20;5.13;;;1.77;;
51594;SDS011;37677;53.254;6.594;2023-05-02T08:38:46;7.20;;;1.75;;
51594;SDS011;37677;53.254;6.594;2023-05-02T08:41:13;6.15;;;2.20;;
51594;SDS011;37677;53.254;6.594;2023-05-02T08:43:41;6.60;;;1.95;;
51594;SDS011;37677;53.254;6.594;2023-05-02T08:46:09;8.25;;;2.20;;
51594;SDS011;37677;53.254;6.594;2023-05-02T08:48:36;4.78;;;2.00;;
51594;SDS011;37677;53.254;6.594;2023-05-02T08:51:05;7.18;;;1.92;;
51594;SDS011;37677;53.254;6.594;2023-05-02T08:53:33;7.93;;;1.80;;
51594;SDS011;37677;53.254;6.594;2023-05-02T08:56:02;6.60;;;1.70;;
51594;SDS011;37677;53.254;6.594;2023-05-02T08:58:28;4.65;;;1.77;;
51594;SDS011;37677;53.254;6.594;2023-05-02T09:00:59;5.75;;;1.75;;
51594;SDS011;37677;53.254;6.594;2023-05-02T09:06:07;6.20;;;1.90;;
51594;SDS011;37677;53.254;6.594;2023-05-02T09:08:35;6.47;;;2.15;;
51594;SDS011;37677;53.254;6.594;2023-05-02T09:11:02;9.30;;;2.25;;
51594;SDS011;37677;53.254;6.594;2023-05-02T09:16:15;10.50;;;2.40;;
51594;SDS011;37677;53.254;6.594;2023-05-02T09:18:47;5.68;;;1.90;;
51594;SDS011;37677;53.254;6.594;2023-05-02T09:21:15;7.30;;;2.45;;
51594;SDS011;37677;53.254;6.594;2023-05-02T09:23:45;9.20;;;2.40;;
51594;SDS011;37677;53.254;6.594;2023-05-02T09:26:17;5.68;;;1.95;;
51594;SDS011;37677;53.254;6.594;2023-05-02T09:28:47;3.75;;;1.48;;
51594;SDS011;37677;53.254;6.594;2023-05-02T09:31:16;5.43;;;1.70;;
51594;SDS011;37677;53.254;6.594;2023-05-02T09:33:43;5.88;;;2.22;;
51594;SDS011;37677;53.254;6.594;2023-05-02T09:36:16;7.70;;;1.88;;
51594;SDS011;37677;53.254;6.594;2023-05-02T09:38:45;11.80;;;2.42;;
51594;SDS011;37677;53.254;6.594;2023-05-02T09:41:12;7.90;;;1.90;;
51594;SDS011;37677;53.254;6.594;2023-05-02T09:43:38;6.45;;;2.28;;
51594;SDS011;37677;53.254;6.594;2023-05-02T09:46:06;10.18;;;2.90;;
51594;SDS011;37677;53.254;6.594;2023-05-02T09:51:21;8.57;;;2.03;;
51594;SDS011;37677;53.254;6.594;2023-05-02T09:53:48;12.70;;;2.50;;
51594;SDS011;37677;53.254;6.594;2023-05-02T09:56:14;5.93;;;2.47;;
51594;SDS011;37677;53.254;6.594;2023-05-02T09:58:41;6.00;;;1.85;;
51594;SDS011;37677;53.254;6.594;2023-05-02T10:01:06;6.72;;;2.00;;
51594;SDS011;37677;53.254;6.594;2023-05-02T10:03:35;4.68;;;1.65;;
51594;SDS011;37677;53.254;6.594;2023-05-02T10:06:02;6.35;;;1.60;;
51594;SDS011;37677;53.254;6.594;2023-05-02T10:08:29;7.93;;;1.88;;
51594;SDS011;37677;53.254;6.594;2023-05-02T10:10:58;6.32;;;1.77;;
51594;SDS011;37677;53.254;6.594;2023-05-02T10:13:25;9.68;;;2.20;;
51594;SDS011;37677;53.254;6.594;2023-05-02T10:21:11;6.03;;;1.80;;
51594;SDS011;37677;53.254;6.594;2023-05-02T10:23:49;8.13;;;2.25;;
51594;SDS011;37677;53.254;6.594;2023-05-02T10:26:17;7.00;;;2.15;;
51594;SDS011;37677;53.254;6.594;2023-05-02T10:28:45;6.63;;;1.90;;
51594;SDS011;37677;53.254;6.594;2023-05-02T10:31:12;9.90;;;2.53;;
51594;SDS011;37677;53.254;6.594;2023-05-02T10:33:39;7.00;;;2.00;;
51594;SDS011;37677;53.254;6.594;2023-05-02T10:36:06;7.55;;;2.00;;
51594;SDS011;37677;53.254;6.594;2023-05-02T10:38:41;5.10;;;1.88;;
51594;SDS011;37677;53.254;6.594;2023-05-02T10:41:08;7.55;;;2.05;;
51594;SDS011;37677;53.254;6.594;2023-05-02T10:43:37;7.28;;;1.95;;
51594;SDS011;37677;53.254;6.594;2023-05-02T10:46:10;6.47;;;2.17;;
51594;SDS011;37677;53.254;6.594;2023-05-02T10:51:28;5.85;;;2.30;;
51594;SDS011;37677;53.254;6.594;2023-05-02T10:59:38;11.60;;;2.75;;
51594;SDS011;37677;53.254;6.594;2023-05-02T11:05:01;11.27;;;1.85;;
51594;SDS011;37677;53.254;6.594;2023-05-02T11:07:34;5.53;;;2.22;;
51594;SDS011;37677;53.254;6.594;2023-05-02T11:15:52;6.78;;;2.30;;
51594;SDS011;37677;53.254;6.594;2023-05-02T11:18:12;10.05;;;2.05;;
51594;SDS011;37677;53.254;6.594;2023-05-02T11:20:42;9.18;;;1.95;;
51594;SDS011;37677;53.254;6.594;2023-05-02T11:25:40;7.35;;;1.85;;
51594;SDS011;37677;53.254;6.594;2023-05-02T11:28:37;7.35;;;1.70;;
51594;SDS011;37677;53.254;6.594;2023-05-02T11:31:03;4.80;;;1.80;;
51594;SDS011;37677;53.254;6.594;2023-05-02T11:33:30;4.90;;;1.73;;
51594;SDS011;37677;53.254;6.594;2023-05-02T11:35:55;5.00;;;1.50;;
51594;SDS011;37677;53.254;6.594;2023-05-02T11:38:23;6.88;;;1.70;;
51594;SDS011;37677;53.254;6.594;2023-05-02T11:40:58;5.82;;;1.77;;
51594;SDS011;37677;53.254;6.594;2023-05-02T11:43:26;4.10;;;1.42;;
51594;SDS011;37677;53.254;6.594;2023-05-02T11:45:53;7.45;;;1.80;;
51594;SDS011;37677;53.254;6.594;2023-05-02T11:48:20;3.35;;;1.20;;
51594;SDS011;37677;53.254;6.594;2023-05-02T11:50:48;4.90;;;1.30;;
51594;SDS011;37677;53.254;6.594;2023-05-02T11:53:15;2.00;;;0.90;;
51594;SDS011;37677;53.254;6.594;2023-05-02T11:55:49;2.30;;;0.95;;
51594;SDS011;37677;53.254;6.594;2023-05-02T11:58:20;3.22;;;1.00;;
51594;SDS011;37677;53.254;6.594;2023-05-02T12:00:47;3.10;;;1.00;;
51594;SDS011;37677;53.254;6.594;2023-05-02T12:03:20;5.47;;;1.30;;
51594;SDS011;37677;53.254;6.594;2023-05-02T12:05:48;1.80;;;0.82;;
51594;SDS011;37677;53.254;6.594;2023-05-02T12:08:20;4.88;;;1.02;;
51594;SDS011;37677;53.254;6.594;2023-05-02T12:10:46;3.40;;;1.08;;
51594;SDS011;37677;53.254;6.594;2023-05-02T12:13:13;2.50;;;1.00;;
51594;SDS011;37677;53.254;6.594;2023-05-02T12:15:39;4.18;;;1.38;;
51594;SDS011;37677;53.254;6.594;2023-05-02T12:18:05;6.32;;;1.77;;
51594;SDS011;37677;53.254;6.594;2023-05-02T12:20:31;3.60;;;0.93;;
51594;SDS011;37677;53.254;6.594;2023-05-02T12:22:57;5.25;;;1.42;;
51594;SDS011;37677;53.254;6.594;2023-05-02T12:25:23;4.53;;;1.15;;
51594;SDS011;37677;53.254;6.594;2023-05-02T12:28:01;4.50;;;1.20;;
51594;SDS011;37677;53.254;6.594;2023-05-02T12:30:27;3.65;;;1.02;;
51594;SDS011;37677;53.254;6.594;2023-05-02T12:32:57;4.50;;;1.17;;
51594;SDS011;37677;53.254;6.594;2023-05-02T12:35:28;3.78;;;1.02;;
51594;SDS011;37677;53.254;6.594;2023-05-02T12:38:06;3.33;;;1.20;;
51594;SDS011;37677;53.254;6.594;2023-05-02T12:41:13;5.00;;;1.17;;
51594;SDS011;37677;53.254;6.594;2023-05-02T12:43:47;4.15;;;1.42;;
51594;SDS011;37677;53.254;6.594;2023-05-02T12:46:13;6.88;;;1.58;;
51594;SDS011;37677;53.254;6.594;2023-05-02T12:48:40;8.30;;;2.03;;
51594;SDS011;37677;53.254;6.594;2023-05-02T12:51:15;6.72;;;1.77;;
51594;SDS011;37677;53.254;6.594;2023-05-02T12:53:45;4.72;;;1.30;;
51594;SDS011;37677;53.254;6.594;2023-05-02T12:56:13;4.72;;;1.55;;
51594;SDS011;37677;53.254;6.594;2023-05-02T12:58:42;4.40;;;1.55;;
51594;SDS011;37677;53.254;6.594;2023-05-02T13:01:10;6.47;;;1.40;;
51594;SDS011;37677;53.254;6.594;2023-05-02T13:03:36;4.35;;;1.52;;
51594;SDS011;37677;53.254;6.594;2023-05-02T13:06:02;4.63;;;1.67;;
51594;SDS011;37677;53.254;6.594;2023-05-02T13:08:28;6.25;;;1.23;;
51594;SDS011;37677;53.254;6.594;2023-05-02T13:10:54;5.22;;;1.60;;
51594;SDS011;37677;53.254;6.594;2023-05-02T13:13:20;7.28;;;1.58;;
51594;SDS011;37677;53.254;6.594;2023-05-02T13:15:46;5.30;;;1.40;;
51594;SDS011;37677;53.254;6.594;2023-05-02T13:18:12;6.25;;;1.27;;
51594;SDS011;37677;53.254;6.594;2023-05-02T13:20:38;5.80;;;1.42;;
51594;SDS011;37677;53.254;6.594;2023-05-02T13:23:03;6.05;;;1.65;;
51594;SDS011;37677;53.254;6.594;2023-05-02T13:25:29;3.80;;;1.25;;
51594;SDS011;37677;53.254;6.594;2023-05-02T13:27:55;6.53;;;1.42;;
51594;SDS011;37677;53.254;6.594;2023-05-02T13:30:22;3.22;;;1.20;;
51594;SDS011;37677;53.254;6.594;2023-05-02T13:32:48;4.05;;;1.45;;
51594;SDS011;37677;53.254;6.594;2023-05-02T13:35:14;4.28;;;1.17;;
51594;SDS011;37677;53.254;6.594;2023-05-02T13:37:40;6.43;;;1.60;;
51594;SDS011;37677;53.254;6.594;2023-05-02T13:40:06;6.50;;;1.50;;
51594;SDS011;37677;53.254;6.594;2023-05-02T13:42:32;4.60;;;1.48;;
51594;SDS011;37677;53.254;6.594;2023-05-02T13:44:58;3.45;;;1.38;;
51594;SDS011;37677;53.254;6.594;2023-05-02T13:47:24;3.83;;;1.08;;
51594;SDS011;37677;53.254;6.594;2023-05-02T13:49:50;8.32;;;1.48;;
51594;SDS011;37677;53.254;6.594;2023-05-02T13:52:16;5.68;;;1.58;;
51594;SDS011;37677;53.254;6.594;2023-05-02T13:54:42;4.80;;;1.25;;
51594;SDS011;37677;53.254;6.594;2023-05-02T13:57:08;6.20;;;1.52;;
51594;SDS011;37677;53.254;6.594;2023-05-02T13:59:34;4.30;;;1.30;;
51594;SDS011;37677;53.254;6.594;2023-05-02T14:02:01;9.70;;;1.77;;
51594;SDS011;37677;53.254;6.594;2023-05-02T14:04:27;4.78;;;1.40;;
51594;SDS011;37677;53.254;6.594;2023-05-02T14:07:04;5.43;;;1.25;;
51594;SDS011;37677;53.254;6.594;2023-05-02T14:09:30;5.93;;;1.50;;
51594;SDS011;37677;53.254;6.594;2023-05-02T14:11:56;4.82;;;1.25;;
51594;SDS011;37677;53.254;6.594;2023-05-02T14:14:23;5.78;;;1.55;;
51594;SDS011;37677;53.254;6.594;2023-05-02T14:16:48;7.13;;;1.60;;
51594;SDS011;37677;53.254;6.594;2023-05-02T14:19:14;5.32;;;1.60;;
51594;SDS011;37677;53.254;6.594;2023-05-02T14:21:40;9.70;;;2.33;;
51594;SDS011;37677;53.254;6.594;2023-05-02T14:24:06;9.35;;;2.08;;
51594;SDS011;37677;53.254;6.594;2023-05-02T14:26:33;8.13;;;2.10;;
51594;SDS011;37677;53.254;6.594;2023-05-02T14:28:59;4.22;;;1.50;;
51594;SDS011;37677;53.254;6.594;2023-05-02T14:31:25;5.65;;;1.92;;
51594;SDS011;37677;53.254;6.594;2023-05-02T14:33:51;5.22;;;1.55;;
51594;SDS011;37677;53.254;6.594;2023-05-02T14:36:17;7.97;;;2.03;;
51594;SDS011;37677;53.254;6.594;2023-05-02T14:38:43;10.52;;;2.88;;
51594;SDS011;37677;53.254;6.594;2023-05-02T14:41:09;6.00;;;1.80;;
51594;SDS011;37677;53.254;6.594;2023-05-02T14:43:34;9.63;;;1.70;;
51594;SDS011;37677;53.254;6.594;2023-05-02T14:46:01;14.10;;;3.08;;
51594;SDS011;37677;53.254;6.594;2023-05-02T14:48:26;4.68;;;1.58;;
51594;SDS011;37677;53.254;6.594;2023-05-02T14:50:52;7.28;;;2.00;;
51594;SDS011;37677;53.254;6.594;2023-05-02T14:53:19;7.00;;;2.63;;
51594;SDS011;37677;53.254;6.594;2023-05-02T14:55:45;8.27;;;2.08;;
51594;SDS011;37677;53.254;6.594;2023-05-02T14:58:11;6.43;;;1.52;;
51594;SDS011;37677;53.254;6.594;2023-05-02T15:00:36;7.60;;;1.80;;
51594;SDS011;37677;53.254;6.594;2023-05-02T15:03:06;8.02;;;1.83;;
51594;SDS011;37677;53.254;6.594;2023-05-02T15:05:32;7.70;;;1.30;;
51594;SDS011;37677;53.254;6.594;2023-05-02T15:07:58;8.30;;;2.65;;
51594;SDS011;37677;53.254;6.594;2023-05-02T15:10:24;7.50;;;1.98;;
51594;SDS011;37677;53.254;6.594;2023-05-02T15:12:50;7.60;;;1.90;;
51594;SDS011;37677;53.254;6.594;2023-05-02T15:15:16;7.05;;;1.67;;
51594;SDS011;37677;53.254;6.594;2023-05-02T15:17:42;6.00;;;1.80;;
51594;SDS011;37677;53.254;6.594;2023-05-02T15:20:08;4.15;;;1.63;;
51594;SDS011;37677;53.254;6.594;2023-05-02T15:22:35;7.72;;;1.83;;
51594;SDS011;37677;53.254;6.594;2023-05-02T15:25:01;7.03;;;1.63;;
51594;SDS011;37677;53.254;6.594;2023-05-02T15:27:26;5.95;;;1.80;;
51594;SDS011;37677;53.254;6.594;2023-05-02T15:29:52;6.22;;;1.73;;
51594;SDS011;37677;53.254;6.594;2023-05-02T15:32:18;8.05;;;2.95;;
51594;SDS011;37677;53.254;6.594;2023-05-02T15:34:43;10.13;;;3.25;;
51594;SDS011;37677;53.254;6.594;2023-05-02T15:37:09;4.40;;;2.08;;
51594;SDS011;37677;53.254;6.594;2023-05-02T15:39:35;5.10;;;1.65;;
51594;SDS011;37677;53.254;6.594;2023-05-02T15:42:02;5.20;;;1.83;;